createdAt,value
2022-08-11T00:02:05.337Z,101508.56
2022-08-11T00:04:58.956Z,101516.69
2022-08-11T00:07:45.184Z,101518.56
2022-08-11T00:10:36.030Z,101523.03
2022-08-11T00:13:10.341Z,101525.56
2022-08-11T00:15:48.706Z,101518.59
2022-08-11T00:18:19.060Z,101517.00
2022-08-11T00:20:53.935Z,101521.69
2022-08-11T00:23:22.999Z,101527.84
2022-08-11T00:25:53.326Z,101523.59
2022-08-11T00:28:27.155Z,101523.75
2022-08-11T00:30:58.397Z,101516.03
2022-08-11T00:33:44.119Z,101514.34
2022-08-11T00:36:28.861Z,101515.41
2022-08-11T00:39:09.166Z,101514.63
2022-08-11T00:42:03.949Z,101521.16
2022-08-11T00:44:54.376Z,101517.69
2022-08-11T00:47:38.844Z,101502.69
2022-08-11T00:50:19.266Z,101511.66
2022-08-11T00:53:17.489Z,101509.44
2022-08-11T00:56:41.210Z,101516.03
2022-08-11T00:59:36.072Z,101509.13
2022-08-11T01:02:30.739Z,101510.13
2022-08-11T01:05:35.410Z,101504.78
2022-08-11T01:08:58.229Z,101513.00
2022-08-11T01:12:00.992Z,101515.00
2022-08-11T01:15:33.175Z,101511.41
2022-08-11T01:18:39.105Z,101512.34
2022-08-11T01:22:07.395Z,101518.72
2022-08-11T01:25:33.342Z,101420.88
2022-08-11T01:29:31.060Z,101518.16
2022-08-11T01:32:38.417Z,101520.94
2022-08-11T01:35:41.702Z,101513.91
2022-08-11T01:39:07.446Z,101514.03
2022-08-11T01:42:23.444Z,101508.84
2022-08-11T01:45:18.022Z,101420.56
2022-08-11T01:48:00.902Z,101513.47
2022-08-11T01:51:19.204Z,101509.13
2022-08-11T01:53:56.079Z,101518.94
2022-08-11T01:56:59.249Z,101518.69
2022-08-11T01:59:35.866Z,101515.09
2022-08-11T02:02:48.678Z,101521.28
2022-08-11T02:05:32.510Z,101446.22
2022-08-11T02:08:18.909Z,101453.31
2022-08-11T02:11:16.475Z,101521.38
2022-08-11T02:13:55.238Z,101256.47
2022-08-11T02:16:46.693Z,101486.88
2022-08-11T02:19:52.019Z,101330.88
2022-08-11T02:22:51.487Z,101531.38
2022-08-11T02:25:31.668Z,101521.75
2022-08-11T02:28:11.806Z,101524.66
2022-08-11T02:32:14.710Z,101525.69
2022-08-11T02:34:16.022Z,101518.72
2022-08-11T02:37:05.207Z,101523.25
2022-08-11T02:39:49.207Z,101523.34
2022-08-11T02:42:32.869Z,101517.09
2022-08-11T02:45:32.404Z,101517.69
2022-08-11T02:48:26.208Z,101517.78
2022-08-11T02:51:14.128Z,101522.50
2022-08-11T02:54:08.210Z,101522.63
2022-08-11T02:56:52.113Z,101520.09
2022-08-11T02:59:53.971Z,101522.03
2022-08-11T03:02:55.190Z,101514.09
2022-08-11T03:05:32.920Z,101510.59
2022-08-11T03:08:32.086Z,101518.72
2022-08-11T03:11:28.969Z,101521.56
2022-08-11T03:14:34.378Z,101518.09
2022-08-11T03:17:23.315Z,101518.78
2022-08-11T03:20:04.085Z,101518.69
2022-08-11T03:22:46.990Z,101515.13
2022-08-11T03:25:31.916Z,101522.22
2022-08-11T03:28:13.274Z,101508.88
2022-08-11T03:30:54.998Z,101521.38
2022-08-11T03:33:45.694Z,101517.00
2022-08-11T03:37:15.001Z,101498.84
2022-08-11T03:39:58.740Z,101524.25
2022-08-11T03:42:34.017Z,101529.75
2022-08-11T03:45:20.608Z,101524.44
2022-08-11T03:48:07.058Z,101525.41
2022-08-11T03:50:56.141Z,101525.53
2022-08-11T03:53:50.284Z,101527.38
2022-08-11T03:57:04.341Z,101528.34
2022-08-11T04:00:15.416Z,101469.63
2022-08-11T04:03:18.807Z,101527.53
2022-08-11T04:06:21.653Z,101525.75
2022-08-11T04:09:41.123Z,101531.13
2022-08-11T04:12:56.109Z,101430.44
2022-08-11T04:16:24.534Z,101530.19
2022-08-11T04:19:38.041Z,101535.50
2022-08-11T04:22:39.321Z,101530.94
2022-08-11T04:25:57.674Z,101536.19
2022-08-11T04:28:51.052Z,101536.94
2022-08-11T04:31:50.690Z,101538.56
2022-08-11T04:34:50.597Z,101534.03
2022-08-11T04:37:53.280Z,101534.75
2022-08-11T04:41:26.871Z,101539.94
2022-08-11T04:45:04.419Z,101536.22
2022-08-11T04:48:10.246Z,101532.50
2022-08-11T04:51:17.786Z,101536.69
2022-08-11T04:54:17.102Z,101539.19
2022-08-11T04:57:07.453Z,101539.03
2022-08-11T05:00:26.183Z,101503.91
2022-08-11T05:03:30.124Z,101533.16
2022-08-11T05:06:41.884Z,101533.75
2022-08-11T05:09:31.975Z,101536.06
2022-08-11T05:12:33.023Z,101465.50
2022-08-11T05:15:21.142Z,101539.53
2022-08-11T05:18:20.963Z,101402.69
2022-08-11T05:21:11.236Z,101498.44
2022-08-11T05:24:03.958Z,101547.66
2022-08-11T05:27:03.489Z,101550.56
2022-08-11T05:30:00.649Z,101562.38
2022-08-11T05:32:59.321Z,101563.56
2022-08-11T05:36:01.778Z,101542.91
2022-08-11T05:38:52.701Z,101563.28
2022-08-11T05:41:40.714Z,101569.28
2022-08-11T05:44:29.964Z,101570.81
2022-08-11T05:47:16.415Z,101567.78
2022-08-11T05:50:09.223Z,101567.56
2022-08-11T05:53:08.887Z,101570.00
2022-08-11T05:56:03.261Z,101568.84
2022-08-11T05:58:43.302Z,101575.84
2022-08-11T06:01:14.118Z,101545.84
2022-08-11T06:04:04.089Z,101583.25
2022-08-11T06:06:34.462Z,101581.19
2022-08-11T06:09:04.442Z,101576.53
2022-08-11T06:11:45.129Z,101577.16
2022-08-11T06:14:16.536Z,101577.81
2022-08-11T06:17:00.173Z,101582.75
2022-08-11T06:19:37.738Z,101581.69
2022-08-11T06:22:12.128Z,101579.72
2022-08-11T06:24:58.131Z,101578.56
2022-08-11T06:27:27.851Z,101577.44
2022-08-11T06:29:57.310Z,101581.56
2022-08-11T06:32:29.141Z,101552.25
2022-08-11T06:35:13.711Z,101589.66
2022-08-11T06:38:02.509Z,101594.75
2022-08-11T06:40:39.581Z,101601.56
2022-08-11T06:43:22.383Z,101599.31
2022-08-11T06:46:03.251Z,101594.25
2022-08-11T06:48:36.470Z,101599.19
2022-08-11T06:51:16.685Z,101587.97
2022-08-11T06:53:59.169Z,101600.94
2022-08-11T06:57:12.526Z,101598.00
2022-08-11T07:00:01.484Z,101594.03
2022-08-11T07:02:34.914Z,101592.75
2022-08-11T07:05:09.328Z,101582.44
2022-08-11T07:08:54.573Z,101548.19
2022-08-11T07:12:10.840Z,101591.25
2022-08-11T07:15:09.766Z,101566.91
2022-08-11T07:17:49.366Z,101559.72
2022-08-11T07:20:37.202Z,101586.31
2022-08-11T07:23:28.618Z,101502.91
2022-08-11T07:26:21.721Z,101565.66
2022-08-11T07:29:00.300Z,101582.38
2022-08-11T07:31:37.995Z,101583.19
2022-08-11T07:34:21.961Z,101574.88
2022-08-11T07:36:53.558Z,101579.09
2022-08-11T07:39:24.539Z,101574.47
2022-08-11T07:41:57.117Z,101564.56
2022-08-11T07:44:34.849Z,101543.25
2022-08-11T07:47:22.403Z,101562.13
2022-08-11T07:50:11.805Z,101564.94
2022-08-11T07:52:43.243Z,101564.44
2022-08-11T07:55:22.220Z,101557.53
2022-08-11T07:58:34.094Z,101548.13
2022-08-11T08:01:39.148Z,101553.97
2022-08-11T08:04:26.902Z,101548.03
2022-08-11T08:07:14.568Z,101549.94
2022-08-11T08:10:03.017Z,101438.84
2022-08-11T08:12:50.471Z,101552.56
2022-08-11T08:15:38.929Z,101550.19
2022-08-11T08:18:26.472Z,101541.56
2022-08-11T08:21:12.107Z,101544.53
2022-08-11T08:23:54.058Z,101500.44
2022-08-11T08:26:43.241Z,101532.28
2022-08-11T08:29:39.257Z,101544.06
2022-08-11T08:32:11.191Z,101534.78
2022-08-11T08:34:46.757Z,101357.44
2022-08-11T08:37:46.891Z,101530.66
2022-08-11T08:40:05.436Z,101531.53
2022-08-11T08:42:45.250Z,101539.25
2022-08-11T08:45:18.555Z,101538.28
2022-08-11T08:47:56.034Z,101536.44
2022-08-11T08:50:50.419Z,101524.16
2022-08-11T08:53:24.625Z,101530.53
2022-08-11T08:55:56.891Z,101532.75
2022-08-11T08:58:26.106Z,101540.25
2022-08-11T09:01:01.050Z,101532.16
2022-08-11T09:04:02.949Z,101520.84
2022-08-11T09:06:33.051Z,101527.69
2022-08-11T09:09:04.017Z,101524.34
2022-08-11T09:11:50.556Z,101528.28
2022-08-11T09:14:20.475Z,101522.06
2022-08-11T09:16:50.473Z,101522.84
2022-08-11T09:19:22.304Z,101512.38
2022-08-11T09:22:09.618Z,101511.31
2022-08-11T09:25:00.972Z,101516.41
2022-08-11T09:27:29.770Z,101513.94
2022-08-11T09:29:59.899Z,101506.47
2022-08-11T09:32:31.506Z,101512.75
2022-08-11T09:35:04.743Z,101522.97
2022-08-11T09:37:58.317Z,101523.22
2022-08-11T09:40:33.395Z,101522.16
2022-08-11T09:43:24.524Z,101520.16
2022-08-11T09:45:56.964Z,101479.00
2022-08-11T09:48:31.880Z,101525.31
2022-08-11T09:51:02.599Z,101521.94
2022-08-11T09:53:40.961Z,101506.09
2022-08-11T09:56:38.598Z,101505.66
2022-08-11T09:59:07.832Z,101509.16
2022-08-11T10:01:55.549Z,101510.97
2022-08-11T10:04:35.527Z,101494.66
2022-08-11T10:07:06.889Z,101493.84
2022-08-11T10:09:48.992Z,101499.97
2022-08-11T10:12:24.515Z,101492.88
2022-08-11T10:15:18.593Z,101497.41
2022-08-11T10:18:08.139Z,101489.94
2022-08-11T10:20:39.030Z,101482.69
2022-08-11T10:23:27.188Z,101487.53
2022-08-11T10:26:15.355Z,101497.09
2022-08-11T10:29:11.657Z,101441.50
2022-08-11T10:31:59.343Z,101477.69
2022-08-11T10:34:33.206Z,101484.22
2022-08-11T10:37:03.661Z,101466.56
2022-08-11T10:39:33.064Z,101468.06
2022-08-11T10:42:35.428Z,101466.78
2022-08-11T10:45:26.775Z,101454.19
2022-08-11T10:47:59.657Z,101447.56
2022-08-11T10:50:49.625Z,101453.97
2022-08-11T10:53:38.017Z,101450.41
2022-08-11T10:56:25.720Z,101459.19
2022-08-11T10:59:09.810Z,101457.31
2022-08-11T11:01:42.642Z,101441.50
2022-08-11T11:04:17.357Z,101445.28
2022-08-11T11:06:55.397Z,101442.28
2022-08-11T11:09:32.454Z,101439.00
2022-08-11T11:12:30.278Z,101449.31
2022-08-11T11:15:22.593Z,101436.28
2022-08-11T11:18:01.481Z,101429.69
2022-08-11T11:20:38.690Z,101436.19
2022-08-11T11:23:19.995Z,101415.78
2022-08-11T11:26:27.602Z,101429.00
2022-08-11T11:29:37.930Z,101416.00
2022-08-11T11:32:31.292Z,101377.28
2022-08-11T11:35:27.953Z,101412.53
2022-08-11T11:38:05.688Z,101415.56
2022-08-11T11:40:42.877Z,101410.13
2022-08-11T11:43:12.430Z,101405.78
2022-08-11T11:45:43.273Z,101402.44
2022-08-11T11:48:21.393Z,101398.31
2022-08-11T11:50:53.703Z,101411.88
2022-08-11T11:53:28.393Z,101399.28
2022-08-11T11:56:01.665Z,101403.72
2022-08-11T11:58:48.150Z,101395.38
2022-08-11T12:01:17.174Z,101402.91
2022-08-11T12:03:54.822Z,101389.28
2022-08-11T12:06:28.585Z,101381.41
2022-08-11T12:09:05.074Z,101379.69
2022-08-11T12:11:51.660Z,101376.25
2022-08-11T12:14:25.793Z,101383.84
2022-08-11T12:17:05.374Z,101369.75
2022-08-11T12:19:36.145Z,101366.28
2022-08-11T12:22:22.978Z,101375.66
2022-08-11T12:25:11.734Z,101359.81
2022-08-11T12:27:43.218Z,101373.81
2022-08-11T12:30:21.391Z,101363.06
2022-08-11T12:32:59.436Z,101357.75
2022-08-11T12:35:31.832Z,101346.78
2022-08-11T12:38:10.064Z,101352.59
2022-08-11T12:41:17.692Z,101352.97
2022-08-11T12:44:08.489Z,101333.03
2022-08-11T12:46:39.809Z,101332.09
2022-08-11T12:49:32.026Z,101328.19
2022-08-11T12:52:15.545Z,101329.22
2022-08-11T12:55:00.612Z,101321.47
2022-08-11T12:57:51.546Z,101329.72
2022-08-11T13:00:39.108Z,101322.13
2022-08-11T13:03:29.779Z,101319.13
2022-08-11T13:06:05.817Z,101319.28
2022-08-11T13:08:39.315Z,101305.91
2022-08-11T13:11:56.800Z,101309.13
2022-08-11T13:14:22.958Z,101306.69
2022-08-11T13:17:16.009Z,101310.91
2022-08-11T13:19:49.890Z,101309.53
2022-08-11T13:22:32.532Z,101299.13
2022-08-11T13:25:17.153Z,101293.03
2022-08-11T13:27:57.283Z,101296.53
2022-08-11T13:30:56.806Z,101295.84
2022-08-11T13:33:47.582Z,101299.78
2022-08-11T13:36:27.310Z,101296.44
2022-08-11T13:39:01.410Z,101283.22
2022-08-11T13:41:42.073Z,101292.13
2022-08-11T13:44:21.587Z,101289.41
2022-08-11T13:47:03.979Z,101270.41
2022-08-11T13:49:35.153Z,101272.88
2022-08-11T13:52:09.625Z,101274.00
2022-08-11T13:54:43.660Z,101270.66
2022-08-11T13:58:07.656Z,101272.00
2022-08-11T14:00:27.636Z,101279.84
2022-08-11T14:03:18.965Z,101268.81
2022-08-11T14:05:52.081Z,101264.72
2022-08-11T14:08:38.152Z,101270.63
2022-08-11T14:12:21.965Z,101271.03
2022-08-11T14:14:29.025Z,101275.00
2022-08-11T14:17:09.327Z,101267.56
2022-08-11T14:19:57.528Z,101268.66
2022-08-11T14:22:29.380Z,101265.81
2022-08-11T14:25:08.483Z,101264.00
2022-08-11T14:28:33.773Z,101261.00
2022-08-11T14:31:01.778Z,101259.31
2022-08-11T14:33:58.633Z,101259.91
2022-08-11T14:36:35.235Z,101252.50
2022-08-11T14:39:13.188Z,101255.75
2022-08-11T14:42:11.593Z,101251.66
2022-08-11T14:45:03.859Z,101250.44
2022-08-11T14:47:39.254Z,101242.78
2022-08-11T14:50:18.010Z,101243.00
2022-08-11T14:53:00.629Z,101241.75
2022-08-11T14:55:48.702Z,101234.69
2022-08-11T14:58:27.895Z,101246.59
2022-08-11T15:01:03.412Z,101235.72
2022-08-11T15:03:37.711Z,101241.41
2022-08-11T15:06:07.341Z,101241.28
2022-08-11T15:08:56.528Z,101230.25
2022-08-11T15:11:49.475Z,101235.44
2022-08-11T15:14:42.408Z,101231.13
2022-08-11T15:17:13.038Z,101229.03
2022-08-11T15:19:59.747Z,101226.19
2022-08-11T15:22:48.608Z,101227.06
2022-08-11T15:25:28.842Z,101218.03
2022-08-11T15:28:21.900Z,101212.25
2022-08-11T15:31:14.030Z,101210.97
2022-08-11T15:34:14.115Z,101203.81
2022-08-11T15:37:17.652Z,101199.00
2022-08-11T15:40:08.313Z,101194.81
2022-08-11T15:43:28.421Z,101192.09
2022-08-11T15:46:11.147Z,101193.09
2022-08-11T15:48:48.518Z,101183.31
2022-08-11T15:51:26.519Z,101194.28
2022-08-11T15:54:09.056Z,101191.06
2022-08-11T15:56:45.430Z,101182.22
2022-08-11T15:59:46.663Z,101184.19
2022-08-11T16:02:35.555Z,101180.72
2022-08-11T16:05:11.106Z,101182.31
2022-08-11T16:07:42.595Z,101170.47
2022-08-11T16:10:21.771Z,101176.00
2022-08-11T16:13:22.559Z,101171.09
2022-08-11T16:16:08.571Z,101173.91
2022-08-11T16:18:56.159Z,101174.63
2022-08-11T16:21:36.148Z,101168.09
2022-08-11T16:26:30.590Z,101165.03
2022-08-11T16:27:14.272Z,101167.09
2022-08-11T16:29:47.959Z,101164.63
2022-08-11T16:32:27.654Z,101169.31
2022-08-11T16:35:19.057Z,101161.44
2022-08-11T16:38:07.464Z,101159.56
2022-08-11T16:40:42.300Z,101162.41
2022-08-11T16:43:34.237Z,101161.56
2022-08-11T16:46:24.473Z,101163.78
2022-08-11T16:48:59.014Z,101161.06
2022-08-11T16:51:27.981Z,101164.25
2022-08-11T16:54:04.740Z,101173.31
2022-08-11T16:56:41.418Z,101088.78
2022-08-11T16:59:18.960Z,101166.81
2022-08-11T17:01:57.289Z,101175.97
2022-08-11T17:05:00.056Z,101166.69
2022-08-11T17:07:51.541Z,101176.94
2022-08-11T17:10:53.739Z,101175.28
2022-08-11T17:13:38.570Z,101180.72
2022-08-11T17:16:13.908Z,101173.53
2022-08-11T17:18:51.272Z,101174.66
2022-08-11T17:21:27.136Z,101175.50
2022-08-11T17:23:59.091Z,101173.66
2022-08-11T17:26:47.337Z,101133.19
2022-08-11T17:29:18.482Z,101170.19
2022-08-11T17:32:10.072Z,101177.78
2022-08-11T17:34:59.146Z,101175.41
2022-08-11T17:37:31.178Z,101177.66
2022-08-11T17:40:06.058Z,101179.13
2022-08-11T17:42:54.463Z,101182.59
2022-08-11T17:45:42.627Z,101178.78
2022-08-11T17:48:29.392Z,101177.09
2022-08-11T17:51:01.077Z,101184.31
2022-08-11T17:54:10.194Z,101175.53
2022-08-11T17:57:02.763Z,101165.00
2022-08-11T17:59:49.934Z,101169.47
2022-08-11T18:02:40.475Z,101174.47
2022-08-11T18:05:13.425Z,101176.75
2022-08-11T18:08:02.369Z,101178.50
2022-08-11T18:10:51.322Z,101180.59
2022-08-11T18:13:39.721Z,101182.59
2022-08-11T18:16:26.180Z,101183.81
2022-08-11T18:19:12.850Z,101188.34
2022-08-11T18:22:14.362Z,101190.63
2022-08-11T18:25:08.905Z,101194.06
2022-08-11T18:27:57.505Z,101193.06
2022-08-11T18:30:45.469Z,101194.72
2022-08-11T18:33:56.882Z,101194.28
2022-08-11T18:36:42.480Z,101195.28
2022-08-11T18:39:32.635Z,101185.50
2022-08-11T18:42:29.298Z,101193.16
2022-08-11T18:45:20.449Z,101193.47
2022-08-11T18:48:11.520Z,101197.44
2022-08-11T18:51:31.152Z,101194.34
2022-08-11T18:54:13.139Z,101197.13
2022-08-11T18:57:04.227Z,101197.13
2022-08-11T19:00:00.621Z,101195.31
2022-08-11T19:02:50.126Z,101197.91
2022-08-11T19:06:33.693Z,101200.28
2022-08-11T19:08:48.779Z,101205.34
2022-08-11T19:11:38.188Z,101203.47
2022-08-11T19:14:31.754Z,101209.94
2022-08-11T19:17:43.676Z,101206.78
2022-08-11T19:20:31.906Z,101202.16
2022-08-11T19:23:20.393Z,101205.47
2022-08-11T19:26:08.222Z,101214.09
2022-08-11T19:28:58.288Z,101212.00
2022-08-11T19:31:46.868Z,101217.53
2022-08-11T19:34:37.616Z,101217.88
2022-08-11T19:37:25.939Z,101215.59
2022-08-11T19:40:13.880Z,101217.44
2022-08-11T19:43:02.011Z,101176.63
2022-08-11T19:45:52.244Z,101219.41
2022-08-11T19:48:43.402Z,101219.22
2022-08-11T19:51:31.298Z,101226.00
2022-08-11T19:54:18.655Z,101219.44
2022-08-11T19:57:05.860Z,101220.13
2022-08-11T19:59:55.416Z,101218.06
2022-08-11T20:02:44.076Z,101223.44
2022-08-11T20:05:31.547Z,101221.38
2022-08-11T20:08:20.182Z,101219.00
2022-08-11T20:11:10.735Z,101226.53
2022-08-11T20:13:59.831Z,101219.72
2022-08-11T20:16:46.791Z,101221.84
2022-08-11T20:19:56.645Z,101221.34
2022-08-11T20:22:45.532Z,101220.28
2022-08-11T20:25:33.251Z,101220.59
2022-08-11T20:28:21.219Z,101227.94
2022-08-11T20:31:09.407Z,101229.75
2022-08-11T20:33:57.164Z,101231.63
2022-08-11T20:36:45.077Z,101237.59
2022-08-11T20:39:35.939Z,101233.97
2022-08-11T20:42:28.443Z,101234.69
2022-08-11T20:45:23.644Z,101239.84
2022-08-11T20:48:15.329Z,101233.81
2022-08-11T20:51:06.455Z,101242.56
2022-08-11T20:53:59.714Z,101234.88
2022-08-11T20:56:54.838Z,101252.44
2022-08-11T20:59:49.548Z,101248.09
2022-08-11T21:02:45.275Z,101248.97
2022-08-11T21:08:48.314Z,101251.50
2022-08-11T21:11:35.623Z,101254.94
2022-08-11T21:14:26.448Z,101260.59
2022-08-11T21:17:26.919Z,101259.38
2022-08-11T21:20:21.040Z,101261.09
2022-08-11T21:23:14.936Z,101262.56
2022-08-11T21:26:15.689Z,101262.56
2022-08-11T21:29:02.754Z,101267.19
2022-08-11T21:31:52.819Z,101263.78
2022-08-11T21:34:40.783Z,101263.78
2022-08-11T21:37:28.380Z,101263.00
2022-08-11T21:40:17.467Z,101268.63
2022-08-11T21:43:07.351Z,101263.44
2022-08-11T21:45:57.021Z,101270.03
2022-08-11T21:48:46.658Z,101262.41
2022-08-11T21:51:33.162Z,101265.09
2022-08-11T21:54:21.409Z,101264.06
2022-08-11T21:57:09.109Z,101267.09
2022-08-11T22:00:02.490Z,101273.53
2022-08-11T22:02:57.804Z,101268.53
2022-08-11T22:05:47.254Z,101271.53
2022-08-11T22:08:34.943Z,101271.00
2022-08-11T22:11:31.813Z,101268.59
2022-08-11T22:14:19.285Z,101270.81
2022-08-11T22:17:05.872Z,101266.56
2022-08-11T22:19:55.166Z,101265.22
2022-08-11T22:22:51.873Z,101258.56
2022-08-11T22:25:44.234Z,101266.19
2022-08-11T22:28:38.452Z,101269.38
2022-08-11T22:31:26.801Z,101274.03
2022-08-11T22:34:13.850Z,101271.69
2022-08-11T22:37:01.520Z,101279.88
2022-08-11T22:40:00.740Z,101279.03
2022-08-11T22:42:54.288Z,101285.28
2022-08-11T22:45:41.233Z,101279.91
2022-08-11T22:48:38.925Z,101275.50
2022-08-11T22:51:28.347Z,101277.50
2022-08-11T22:54:16.077Z,101282.22
2022-08-11T22:57:06.779Z,101285.66
2022-08-11T22:59:55.399Z,101278.22
2022-08-11T23:02:42.076Z,101287.13
2022-08-11T23:05:28.969Z,101295.19
2022-08-11T23:08:17.161Z,101299.06
2022-08-11T23:11:05.330Z,101294.88
2022-08-11T23:13:53.472Z,101293.31
2022-08-11T23:16:41.004Z,101297.09
2022-08-11T23:20:09.032Z,101297.16
2022-08-11T23:22:49.420Z,101301.66
2022-08-11T23:25:36.852Z,101297.47
2022-08-11T23:28:27.126Z,101302.31
2022-08-11T23:31:17.239Z,101293.75
2022-08-11T23:34:08.277Z,101292.16
2022-08-11T23:37:19.210Z,101293.19
2022-08-11T23:40:05.356Z,101292.50
2022-08-11T23:42:56.716Z,101278.56
2022-08-11T23:45:43.830Z,101286.06
2022-08-11T23:48:34.480Z,101280.94
2022-08-11T23:51:21.411Z,101282.84
2022-08-11T23:54:08.724Z,101283.97
2022-08-11T23:56:58.221Z,101282.50
2022-08-11T23:59:44.630Z,101284.53
